createdAt,value
2022-12-23T00:02:19.341Z,12.43
2022-12-23T00:05:23.315Z,12.52
2022-12-23T00:08:27.490Z,12.36
2022-12-23T00:11:31.392Z,12.31
2022-12-23T00:14:35.231Z,12.52
2022-12-23T00:17:39.324Z,12.41
2022-12-23T00:20:43.625Z,12.16
2022-12-23T00:23:47.475Z,12.38
2022-12-23T00:26:51.321Z,12.26
2022-12-23T00:29:55.195Z,12.48
2022-12-23T00:32:59.201Z,11.98
2022-12-23T00:36:03.286Z,11.94
2022-12-23T00:39:07.133Z,12.15
2022-12-23T00:42:11.122Z,12.48
2022-12-23T00:45:15.299Z,12.35
2022-12-23T00:48:19.229Z,12.26
2022-12-23T00:51:23.172Z,12.48
2022-12-23T00:54:27.012Z,12.30
2022-12-23T00:57:31.111Z,12.51
2022-12-23T01:00:35.177Z,12.50
2022-12-23T01:03:39.172Z,12.50
2022-12-23T01:06:43.109Z,12.20
2022-12-23T01:09:47.206Z,12.48
2022-12-23T01:12:51.136Z,12.52
2022-12-23T01:15:55.457Z,12.33
2022-12-23T01:18:59.364Z,12.44
2022-12-23T01:22:03.223Z,12.52
2022-12-23T01:25:07.321Z,12.46
2022-12-23T01:28:11.343Z,12.68
2022-12-23T01:31:15.445Z,12.74
2022-12-23T01:34:19.752Z,12.74
2022-12-23T01:37:23.657Z,12.66
2022-12-23T01:40:27.811Z,12.73
2022-12-23T01:43:31.666Z,12.73
2022-12-23T01:46:35.761Z,12.81
2022-12-23T01:49:39.537Z,12.55
2022-12-23T01:52:43.446Z,12.66
2022-12-23T01:55:47.534Z,12.74
2022-12-23T01:58:51.767Z,12.34
2022-12-23T02:01:55.501Z,12.35
2022-12-23T02:04:59.235Z,12.20
2022-12-23T02:08:03.237Z,12.41
2022-12-23T02:11:07.263Z,12.61
2022-12-23T02:14:11.179Z,12.49
2022-12-23T02:17:16.605Z,12.49
2022-12-23T02:20:20.634Z,12.66
2022-12-23T02:23:24.549Z,12.52
2022-12-23T02:26:28.587Z,12.50
2022-12-23T02:29:32.619Z,12.45
2022-12-23T02:32:36.506Z,11.95
2022-12-23T02:35:40.469Z,11.95
2022-12-23T02:38:44.488Z,12.16
2022-12-23T02:41:48.544Z,12.49
2022-12-23T02:44:52.321Z,12.74
2022-12-23T02:47:56.042Z,12.65
2022-12-23T02:50:59.961Z,12.56
2022-12-23T02:54:04.057Z,12.47
2022-12-23T02:57:07.818Z,12.53
2022-12-23T03:00:11.631Z,12.47
2022-12-23T03:03:15.904Z,12.26
2022-12-23T03:06:20.007Z,12.36
2022-12-23T03:09:23.874Z,12.52
2022-12-23T03:12:27.914Z,12.68
2022-12-23T03:15:31.979Z,12.55
2022-12-23T03:18:35.776Z,12.50
2022-12-23T03:21:39.881Z,12.18
2022-12-23T03:24:44.064Z,12.50
2022-12-23T03:27:47.987Z,12.51
2022-12-23T03:30:51.857Z,12.39
2022-12-23T03:33:55.828Z,12.39
2022-12-23T03:36:59.872Z,12.35
2022-12-23T03:40:03.715Z,12.67
2022-12-23T03:43:07.356Z,12.51
2022-12-23T03:46:11.245Z,12.44
2022-12-23T03:49:15.274Z,12.51
2022-12-23T03:52:21.634Z,12.65
2022-12-23T03:55:25.255Z,12.56
2022-12-23T03:58:29.287Z,12.66
2022-12-23T04:01:33.559Z,12.52
2022-12-23T04:04:37.550Z,12.20
2022-12-23T04:07:41.639Z,12.49
2022-12-23T04:10:45.618Z,12.66
2022-12-23T04:13:49.602Z,12.70
2022-12-23T04:16:53.615Z,12.55
2022-12-23T04:19:57.648Z,12.71
2022-12-23T04:23:01.403Z,12.52
2022-12-23T04:26:05.432Z,12.70
2022-12-23T04:29:09.362Z,12.45
2022-12-23T04:32:13.607Z,12.47
2022-12-23T04:35:17.521Z,12.55
2022-12-23T04:38:21.380Z,12.48
2022-12-23T04:41:25.368Z,12.58
2022-12-23T04:44:29.009Z,12.62
2022-12-23T04:47:33.021Z,12.82
2022-12-23T04:50:36.752Z,12.57
2022-12-23T04:53:40.922Z,12.17
2022-12-23T04:56:45.063Z,12.36
2022-12-23T04:59:49.118Z,12.50
2022-12-23T05:02:53.123Z,12.37
2022-12-23T05:05:56.991Z,12.36
2022-12-23T05:09:00.919Z,12.59
2022-12-23T05:12:04.883Z,12.59
2022-12-23T05:15:08.948Z,12.68
2022-12-23T05:18:12.759Z,12.69
2022-12-23T05:21:16.826Z,12.46
2022-12-23T05:24:20.725Z,12.20
2022-12-23T05:27:24.729Z,12.08
2022-12-23T05:30:28.782Z,12.36
2022-12-23T05:33:32.867Z,12.44
2022-12-23T05:36:37.039Z,12.49
2022-12-23T05:39:41.202Z,12.35
2022-12-23T05:42:45.246Z,12.39
2022-12-23T05:45:49.540Z,12.15
2022-12-23T05:48:53.383Z,12.16
2022-12-23T05:51:57.673Z,12.23
2022-12-23T05:55:01.754Z,12.22
2022-12-23T05:58:05.726Z,12.23
2022-12-23T06:01:09.628Z,12.18
2022-12-23T06:04:13.577Z,12.22
2022-12-23T06:07:17.620Z,12.13
2022-12-23T06:10:21.604Z,12.24
2022-12-23T06:13:25.548Z,12.23
2022-12-23T06:16:29.520Z,12.63
2022-12-23T06:19:33.483Z,12.71
2022-12-23T06:22:37.479Z,12.67
2022-12-23T06:25:41.246Z,12.43
2022-12-23T06:28:45.230Z,12.28
2022-12-23T06:31:49.272Z,12.10
2022-12-23T06:34:54.663Z,12.19
2022-12-23T06:37:58.530Z,12.27
2022-12-23T06:41:02.488Z,12.06
2022-12-23T06:44:06.351Z,12.42
2022-12-23T06:47:10.347Z,12.00
2022-12-23T06:50:14.527Z,12.14
2022-12-23T06:53:18.430Z,12.07
2022-12-23T06:56:22.474Z,11.87
2022-12-23T06:59:26.529Z,12.07
2022-12-23T07:02:30.717Z,11.87
2022-12-23T07:05:37.444Z,12.03
2022-12-23T07:08:41.898Z,12.00
2022-12-23T07:11:45.672Z,12.02
2022-12-23T07:14:49.634Z,11.87
2022-12-23T07:17:53.522Z,12.10
2022-12-23T07:20:57.569Z,11.82
2022-12-23T07:24:01.563Z,11.74
2022-12-23T07:27:05.411Z,11.96
2022-12-23T07:30:09.579Z,12.12
2022-12-23T07:33:13.773Z,12.03
2022-12-23T07:36:17.908Z,11.53
2022-12-23T07:39:21.723Z,12.07
2022-12-23T07:42:44.249Z,11.99
2022-12-23T07:45:52.584Z,11.98
2022-12-23T07:49:01.440Z,11.96
2022-12-23T07:52:05.360Z,12.29
2022-12-23T07:55:09.507Z,12.43
2022-12-23T07:58:13.760Z,12.50
2022-12-23T08:01:17.909Z,12.37
2022-12-23T08:04:21.663Z,12.45
2022-12-23T08:07:25.761Z,12.58
2022-12-23T08:10:29.947Z,12.48
2022-12-23T08:13:34.044Z,12.27
2022-12-23T08:16:43.393Z,12.34
2022-12-23T08:19:47.933Z,12.27
2022-12-23T08:22:51.675Z,12.66
2022-12-23T08:25:55.748Z,12.62
2022-12-23T08:28:59.822Z,12.30
2022-12-23T08:32:06.199Z,12.67
2022-12-23T08:35:10.143Z,12.73
2022-12-23T08:38:14.176Z,12.74
2022-12-23T08:41:18.214Z,12.74
2022-12-23T08:44:22.241Z,12.91
2022-12-23T08:47:26.307Z,13.13
2022-12-23T08:50:30.329Z,13.10
2022-12-23T08:53:34.382Z,13.13
2022-12-23T08:56:38.350Z,13.02
2022-12-23T08:59:42.350Z,13.27
2022-12-23T09:02:46.402Z,13.15
2022-12-23T09:05:50.898Z,12.95
2022-12-23T09:08:54.771Z,12.84
2022-12-23T09:11:58.913Z,12.73
2022-12-23T09:15:02.945Z,12.72
2022-12-23T09:18:07.047Z,13.01
2022-12-23T09:21:10.793Z,13.12
2022-12-23T09:24:14.675Z,13.33
2022-12-23T09:27:18.842Z,13.31
2022-12-23T09:30:22.798Z,13.26
2022-12-23T09:33:26.796Z,13.25
2022-12-23T09:36:30.634Z,12.68
2022-12-23T09:39:34.435Z,12.99
2022-12-23T09:42:38.485Z,12.99
2022-12-23T09:45:42.395Z,12.74
2022-12-23T09:48:46.541Z,13.25
2022-12-23T09:51:50.181Z,13.15
2022-12-23T09:54:54.414Z,13.23
2022-12-23T09:57:58.603Z,12.78
2022-12-23T10:01:02.605Z,12.80
2022-12-23T10:04:06.736Z,12.92
2022-12-23T10:07:10.722Z,12.96
2022-12-23T10:10:14.594Z,12.92
2022-12-23T10:13:18.545Z,13.25
2022-12-23T10:16:22.493Z,13.25
2022-12-23T10:19:26.419Z,13.46
2022-12-23T10:22:30.808Z,13.44
2022-12-23T10:25:34.899Z,13.06
2022-12-23T10:28:39.010Z,13.44
2022-12-23T10:31:43.194Z,13.59
2022-12-23T10:34:47.269Z,13.64
2022-12-23T10:37:51.983Z,13.44
2022-12-23T10:40:56.130Z,13.58
2022-12-23T10:43:59.832Z,13.02
2022-12-23T10:47:03.986Z,13.28
2022-12-23T10:50:08.046Z,13.23
2022-12-23T10:53:12.355Z,13.32
2022-12-23T10:56:16.752Z,13.39
2022-12-23T10:59:20.432Z,13.63
2022-12-23T11:02:24.456Z,13.69
2022-12-23T11:05:28.805Z,13.51
2022-12-23T11:08:32.757Z,13.32
2022-12-23T11:11:36.738Z,13.20
2022-12-23T11:14:40.665Z,12.93
2022-12-23T11:17:45.257Z,12.92
2022-12-23T11:20:49.271Z,12.93
2022-12-23T11:23:55.567Z,12.98
2022-12-23T11:26:59.538Z,13.34
2022-12-23T11:30:03.366Z,12.95
2022-12-23T11:33:07.525Z,12.88
2022-12-23T11:36:11.411Z,13.27
2022-12-23T11:39:15.493Z,13.34
2022-12-23T11:42:19.533Z,13.06
2022-12-23T11:45:23.651Z,12.96
2022-12-23T11:48:27.549Z,13.05
2022-12-23T11:51:31.458Z,13.01
2022-12-23T11:54:35.590Z,12.98
2022-12-23T11:57:39.756Z,13.34
2022-12-23T12:00:43.746Z,13.32
2022-12-23T12:03:48.190Z,13.31
2022-12-23T12:06:56.282Z,13.43
2022-12-23T12:10:00.728Z,13.48
2022-12-23T12:13:04.922Z,12.97
2022-12-23T12:16:09.070Z,13.14
2022-12-23T12:19:12.952Z,13.22
2022-12-23T12:22:17.240Z,13.32
2022-12-23T12:25:24.969Z,13.21
2022-12-23T12:28:30.359Z,13.39
2022-12-23T12:31:34.336Z,13.14
2022-12-23T12:34:54.918Z,13.11
2022-12-23T12:37:58.697Z,13.21
2022-12-23T12:41:02.776Z,13.15
2022-12-23T12:44:06.602Z,13.48
2022-12-23T12:47:36.273Z,13.49
2022-12-23T12:50:34.718Z,13.50
2022-12-23T12:53:38.740Z,13.47
2022-12-23T12:56:43.156Z,12.94
2022-12-23T12:59:46.951Z,12.91
2022-12-23T13:02:50.776Z,13.38
2022-12-23T13:05:54.833Z,13.27
2022-12-23T13:08:58.910Z,13.16
2022-12-23T13:12:03.974Z,13.47
2022-12-23T13:15:08.072Z,13.66
2022-12-23T13:18:12.037Z,13.30
2022-12-23T13:21:16.056Z,13.73
2022-12-23T13:24:20.140Z,13.51
2022-12-23T13:27:24.112Z,13.72
2022-12-23T13:30:28.113Z,13.32
2022-12-23T13:33:31.970Z,13.26
2022-12-23T13:36:36.196Z,12.91
2022-12-23T13:39:40.830Z,13.21
2022-12-23T13:42:45.169Z,13.24
2022-12-23T13:45:49.052Z,13.62
2022-12-23T13:48:52.989Z,13.54
2022-12-23T13:51:57.157Z,13.74
2022-12-23T13:55:01.427Z,13.94
2022-12-23T13:58:05.373Z,14.00
2022-12-23T14:01:09.481Z,13.89
2022-12-23T14:04:13.662Z,13.87
2022-12-23T14:07:19.694Z,13.59
2022-12-23T14:10:23.524Z,13.77
2022-12-23T14:13:27.723Z,13.51
2022-12-23T14:16:31.604Z,13.65
2022-12-23T14:19:35.798Z,13.89
2022-12-23T14:22:39.628Z,13.54
2022-12-23T14:25:43.705Z,13.63
2022-12-23T14:28:47.752Z,13.26
2022-12-23T14:31:51.645Z,13.56
2022-12-23T14:34:56.435Z,13.61
2022-12-23T14:38:00.407Z,13.64
2022-12-23T14:41:04.377Z,13.43
2022-12-23T14:44:08.029Z,13.75
2022-12-23T14:47:11.826Z,13.49
2022-12-23T14:50:16.066Z,13.53
2022-12-23T14:53:20.342Z,13.60
2022-12-23T14:56:24.198Z,13.85
2022-12-23T14:59:28.090Z,13.88
2022-12-23T15:02:32.218Z,13.82
2022-12-23T15:05:36.281Z,13.73
2022-12-23T15:08:40.973Z,13.57
2022-12-23T15:11:44.851Z,13.39
2022-12-23T15:14:48.885Z,13.51
2022-12-23T15:17:53.009Z,13.83
2022-12-23T15:20:57.235Z,13.87
2022-12-23T15:24:00.808Z,13.97
2022-12-23T15:27:25.983Z,13.86
2022-12-23T15:30:28.206Z,13.96
2022-12-23T15:36:56.195Z,14.11
2022-12-23T15:40:09.349Z,13.56
2022-12-23T15:43:16.247Z,13.56
2022-12-23T15:46:25.337Z,13.76
2022-12-23T15:49:34.648Z,13.99
2022-12-23T15:52:38.338Z,14.07
2022-12-23T15:55:42.231Z,14.18
2022-12-23T15:58:46.193Z,14.08
2022-12-23T16:01:50.474Z,14.09
2022-12-23T16:04:54.660Z,13.75
2022-12-23T16:07:58.561Z,13.75
2022-12-23T16:11:02.393Z,13.79
2022-12-23T16:14:06.367Z,13.58
2022-12-23T16:17:10.430Z,13.60
2022-12-23T16:20:15.402Z,13.35
2022-12-23T16:23:19.289Z,13.19
2022-12-23T16:26:23.311Z,13.79
2022-12-23T16:29:27.444Z,13.94
2022-12-23T16:32:31.736Z,13.68
2022-12-23T16:35:36.027Z,13.92
2022-12-23T16:38:39.888Z,13.48
2022-12-23T16:41:44.176Z,13.05
2022-12-23T16:44:48.211Z,12.42
2022-12-23T16:47:52.332Z,12.45
2022-12-23T16:50:56.613Z,12.82
2022-12-23T16:54:00.591Z,13.11
2022-12-23T16:57:04.654Z,13.12
2022-12-23T17:00:08.800Z,13.21
2022-12-23T17:03:12.636Z,13.51
2022-12-23T17:06:16.644Z,13.78
2022-12-23T17:09:20.635Z,13.69
2022-12-23T17:12:24.748Z,13.58
2022-12-23T17:15:28.898Z,13.64
2022-12-23T17:18:32.722Z,13.82
2022-12-23T17:21:36.380Z,13.65
2022-12-23T17:24:41.180Z,13.42
2022-12-23T17:27:45.169Z,13.51
2022-12-23T17:30:49.066Z,13.65
2022-12-23T17:33:53.248Z,13.51
2022-12-23T17:36:57.515Z,13.53
2022-12-23T17:40:01.380Z,13.42
2022-12-23T17:43:05.469Z,13.21
2022-12-23T17:46:09.302Z,13.61
2022-12-23T17:49:13.153Z,13.49
2022-12-23T17:52:17.317Z,13.74
2022-12-23T17:55:21.272Z,13.55
2022-12-23T17:58:25.188Z,13.42
2022-12-23T18:01:29.174Z,13.11
2022-12-23T18:04:32.901Z,12.83
2022-12-23T18:07:36.934Z,12.84
2022-12-23T18:10:40.948Z,12.96
2022-12-23T18:13:44.804Z,12.92
2022-12-23T18:16:49.307Z,12.95
2022-12-23T18:19:53.498Z,12.96
2022-12-23T18:22:57.738Z,13.04
2022-12-23T18:26:01.617Z,13.08
2022-12-23T18:29:05.401Z,13.34
2022-12-23T18:32:09.470Z,13.14
2022-12-23T18:35:13.562Z,13.23
2022-12-23T18:38:17.591Z,13.38
2022-12-23T18:41:21.538Z,13.42
2022-12-23T18:44:25.607Z,13.72
2022-12-23T18:47:29.427Z,13.53
2022-12-23T18:50:33.416Z,13.80
2022-12-23T18:53:37.431Z,13.44
2022-12-23T18:56:41.437Z,13.54
2022-12-23T18:59:46.480Z,13.72
2022-12-23T19:02:50.529Z,13.85
2022-12-23T19:05:54.683Z,13.85
2022-12-23T19:08:58.529Z,13.70
2022-12-23T19:12:02.713Z,13.75
2022-12-23T19:15:06.842Z,13.63
2022-12-23T19:18:10.806Z,13.26
2022-12-23T19:21:14.677Z,13.44
2022-12-23T19:24:18.775Z,13.57
2022-12-23T19:27:22.811Z,13.58
2022-12-23T19:30:26.870Z,13.59
2022-12-23T19:33:30.767Z,12.75
2022-12-23T19:36:34.704Z,13.11
2022-12-23T19:39:38.730Z,13.25
2022-12-23T19:42:42.549Z,13.55
2022-12-23T19:45:46.791Z,13.27
2022-12-23T19:48:50.622Z,13.47
2022-12-23T19:51:54.531Z,13.45
2022-12-23T19:54:58.373Z,13.38
2022-12-23T19:58:02.556Z,13.47
2022-12-23T20:01:06.562Z,13.36
2022-12-23T20:04:10.505Z,13.27
2022-12-23T20:07:14.339Z,13.48
2022-12-23T20:10:18.368Z,13.11
2022-12-23T20:13:22.550Z,13.19
2022-12-23T20:16:26.601Z,13.31
2022-12-23T20:19:30.554Z,13.06
2022-12-23T20:22:34.807Z,13.51
2022-12-23T20:25:38.694Z,13.65
2022-12-23T20:28:42.551Z,13.44
2022-12-23T20:31:46.505Z,13.66
2022-12-23T20:34:50.225Z,13.10
2022-12-23T20:37:54.336Z,13.15
2022-12-23T20:40:58.349Z,13.37
2022-12-23T20:44:33.348Z,13.41
2022-12-23T20:47:25.829Z,13.62
2022-12-23T20:50:29.758Z,13.39
2022-12-23T20:53:33.932Z,13.50
2022-12-23T20:56:37.899Z,13.43
2022-12-23T20:59:41.889Z,13.83
2022-12-23T21:02:45.845Z,13.60
2022-12-23T21:05:49.771Z,13.71
2022-12-23T21:08:54.190Z,13.66
2022-12-23T21:11:58.287Z,13.37
2022-12-23T21:15:02.227Z,13.59
2022-12-23T21:18:06.121Z,13.41
2022-12-23T21:21:10.074Z,13.60
2022-12-23T21:24:14.186Z,13.80
2022-12-23T21:27:18.390Z,13.82
2022-12-23T21:30:22.177Z,13.76
2022-12-23T21:33:26.340Z,13.63
2022-12-23T21:36:30.461Z,13.85
2022-12-23T21:39:34.472Z,13.66
2022-12-23T21:42:38.325Z,13.84
2022-12-23T21:45:42.339Z,13.37
2022-12-23T21:48:46.627Z,13.58
2022-12-23T21:51:50.706Z,13.48
2022-12-23T21:54:54.771Z,13.64
2022-12-23T21:57:58.627Z,13.55
2022-12-23T22:01:02.604Z,13.85
2022-12-23T22:04:06.756Z,13.53
2022-12-23T22:07:10.946Z,13.56
2022-12-23T22:10:14.862Z,13.56
2022-12-23T22:13:18.915Z,13.35
2022-12-23T22:16:22.873Z,13.49
2022-12-23T22:19:26.996Z,13.45
2022-12-23T22:22:31.015Z,13.50
2022-12-23T22:25:34.787Z,13.64
2022-12-23T22:28:38.639Z,13.71
2022-12-23T22:31:42.723Z,13.68
2022-12-23T22:34:46.494Z,13.47
2022-12-23T22:37:50.408Z,13.66
2022-12-23T22:40:54.405Z,13.54
2022-12-23T22:43:58.564Z,13.51
2022-12-23T22:47:02.742Z,13.39
2022-12-23T22:50:06.895Z,13.51
2022-12-23T22:53:10.783Z,13.77
2022-12-23T22:56:15.104Z,13.97
2022-12-23T22:59:18.930Z,13.65
2022-12-23T23:02:23.074Z,13.38
2022-12-23T23:05:27.204Z,13.40
2022-12-23T23:08:31.229Z,13.95
2022-12-23T23:11:35.269Z,13.91
2022-12-23T23:14:39.473Z,13.84
2022-12-23T23:17:43.764Z,13.50
2022-12-23T23:20:47.619Z,13.79
2022-12-23T23:23:51.725Z,13.63
2022-12-23T23:26:55.779Z,13.80
2022-12-23T23:29:59.953Z,13.61
2022-12-23T23:33:03.814Z,13.69
2022-12-23T23:36:07.633Z,13.56
2022-12-23T23:39:11.681Z,13.60
2022-12-23T23:42:15.689Z,13.61
2022-12-23T23:45:19.795Z,13.38
2022-12-23T23:48:25.552Z,13.31
2022-12-23T23:51:29.541Z,13.15
2022-12-23T23:54:33.321Z,13.38
2022-12-23T23:57:37.514Z,13.29
